sensor_id;sensor_type;location;lat;lon;timestamp;P1;durP1;ratioP1;P2;durP2;ratioP2
11189;SDS011;5651;50.926;4.718;2023-02-19T00:01:28;11.77;;;6.57;;
11189;SDS011;5651;50.926;4.718;2023-02-19T00:04:16;10.70;;;5.47;;
11189;SDS011;5651;50.926;4.718;2023-02-19T00:06:48;12.75;;;6.30;;
11189;SDS011;5651;50.926;4.718;2023-02-19T00:09:15;10.95;;;5.68;;
11189;SDS011;5651;50.926;4.718;2023-02-19T00:11:42;11.23;;;5.97;;
11189;SDS011;5651;50.926;4.718;2023-02-19T00:14:09;9.38;;;5.65;;
11189;SDS011;5651;50.926;4.718;2023-02-19T00:16:39;7.00;;;4.10;;
11189;SDS011;5651;50.926;4.718;2023-02-19T00:19:05;8.48;;;4.57;;
11189;SDS011;5651;50.926;4.718;2023-02-19T00:21:33;12.13;;;5.85;;
11189;SDS011;5651;50.926;4.718;2023-02-19T00:24:00;9.77;;;5.75;;
11189;SDS011;5651;50.926;4.718;2023-02-19T00:26:27;13.95;;;6.00;;
11189;SDS011;5651;50.926;4.718;2023-02-19T00:28:54;12.95;;;6.60;;
11189;SDS011;5651;50.926;4.718;2023-02-19T00:31:22;11.85;;;6.53;;
11189;SDS011;5651;50.926;4.718;2023-02-19T00:33:50;12.15;;;6.47;;
11189;SDS011;5651;50.926;4.718;2023-02-19T00:36:19;14.90;;;7.18;;
11189;SDS011;5651;50.926;4.718;2023-02-19T00:38:45;11.93;;;6.78;;
11189;SDS011;5651;50.926;4.718;2023-02-19T00:41:12;15.60;;;6.95;;
11189;SDS011;5651;50.926;4.718;2023-02-19T00:43:52;18.00;;;7.82;;
11189;SDS011;5651;50.926;4.718;2023-02-19T00:48:45;17.52;;;9.05;;
11189;SDS011;5651;50.926;4.718;2023-02-19T00:51:12;16.05;;;9.32;;
11189;SDS011;5651;50.926;4.718;2023-02-19T00:53:37;16.27;;;8.40;;
11189;SDS011;5651;50.926;4.718;2023-02-19T00:56:04;18.65;;;9.02;;
11189;SDS011;5651;50.926;4.718;2023-02-19T00:58:31;18.30;;;9.52;;
11189;SDS011;5651;50.926;4.718;2023-02-19T01:00:57;16.45;;;8.85;;
11189;SDS011;5651;50.926;4.718;2023-02-19T01:03:22;16.92;;;8.63;;
11189;SDS011;5651;50.926;4.718;2023-02-19T01:05:49;16.55;;;7.97;;
11189;SDS011;5651;50.926;4.718;2023-02-19T01:08:16;19.27;;;8.82;;
11189;SDS011;5651;50.926;4.718;2023-02-19T01:10:42;17.08;;;9.40;;
11189;SDS011;5651;50.926;4.718;2023-02-19T01:13:08;16.88;;;8.65;;
11189;SDS011;5651;50.926;4.718;2023-02-19T01:15:34;15.50;;;8.60;;
11189;SDS011;5651;50.926;4.718;2023-02-19T01:18:00;21.02;;;9.68;;
11189;SDS011;5651;50.926;4.718;2023-02-19T01:20:26;18.70;;;9.02;;
11189;SDS011;5651;50.926;4.718;2023-02-19T01:22:52;18.80;;;8.88;;
11189;SDS011;5651;50.926;4.718;2023-02-19T01:25:17;16.25;;;8.15;;
11189;SDS011;5651;50.926;4.718;2023-02-19T01:27:43;13.90;;;7.15;;
11189;SDS011;5651;50.926;4.718;2023-02-19T01:30:09;20.20;;;9.32;;
11189;SDS011;5651;50.926;4.718;2023-02-19T01:32:35;15.90;;;8.07;;
11189;SDS011;5651;50.926;4.718;2023-02-19T01:35:00;17.65;;;7.85;;
11189;SDS011;5651;50.926;4.718;2023-02-19T01:37:26;25.30;;;9.43;;
11189;SDS011;5651;50.926;4.718;2023-02-19T01:39:52;18.23;;;7.55;;
11189;SDS011;5651;50.926;4.718;2023-02-19T01:42:17;16.02;;;8.10;;
11189;SDS011;5651;50.926;4.718;2023-02-19T01:47:09;20.35;;;8.18;;
11189;SDS011;5651;50.926;4.718;2023-02-19T01:49:41;23.45;;;10.45;;
11189;SDS011;5651;50.926;4.718;2023-02-19T01:52:14;15.95;;;8.07;;
11189;SDS011;5651;50.926;4.718;2023-02-19T01:54:47;15.38;;;7.97;;
11189;SDS011;5651;50.926;4.718;2023-02-19T01:57:16;13.00;;;6.82;;
11189;SDS011;5651;50.926;4.718;2023-02-19T01:59:45;16.90;;;8.27;;
11189;SDS011;5651;50.926;4.718;2023-02-19T02:02:14;17.23;;;6.63;;
11189;SDS011;5651;50.926;4.718;2023-02-19T02:04:40;13.98;;;6.97;;
11189;SDS011;5651;50.926;4.718;2023-02-19T02:07:06;15.93;;;7.90;;
11189;SDS011;5651;50.926;4.718;2023-02-19T02:09:52;20.02;;;7.38;;
11189;SDS011;5651;50.926;4.718;2023-02-19T02:12:48;15.57;;;7.28;;
11189;SDS011;5651;50.926;4.718;2023-02-19T02:15:14;15.27;;;7.15;;
11189;SDS011;5651;50.926;4.718;2023-02-19T02:17:48;13.15;;;6.72;;
11189;SDS011;5651;50.926;4.718;2023-02-19T02:22:48;15.25;;;5.90;;
11189;SDS011;5651;50.926;4.718;2023-02-19T02:33:35;15.18;;;4.72;;
11189;SDS011;5651;50.926;4.718;2023-02-19T02:36:08;15.32;;;4.78;;
11189;SDS011;5651;50.926;4.718;2023-02-19T02:38:39;14.80;;;5.18;;
11189;SDS011;5651;50.926;4.718;2023-02-19T02:41:08;9.32;;;4.50;;
11189;SDS011;5651;50.926;4.718;2023-02-19T02:43:34;12.70;;;4.60;;
11189;SDS011;5651;50.926;4.718;2023-02-19T02:46:00;16.40;;;4.55;;
11189;SDS011;5651;50.926;4.718;2023-02-19T02:48:27;11.18;;;4.15;;
11189;SDS011;5651;50.926;4.718;2023-02-19T02:50:59;10.80;;;4.07;;
11189;SDS011;5651;50.926;4.718;2023-02-19T02:56:27;13.20;;;4.28;;
11189;SDS011;5651;50.926;4.718;2023-02-19T02:58:55;17.48;;;4.97;;
11189;SDS011;5651;50.926;4.718;2023-02-19T03:01:23;11.88;;;4.22;;
11189;SDS011;5651;50.926;4.718;2023-02-19T03:04:13;12.93;;;3.38;;
11189;SDS011;5651;50.926;4.718;2023-02-19T03:06:45;14.93;;;4.28;;
11189;SDS011;5651;50.926;4.718;2023-02-19T03:09:27;13.75;;;3.47;;
11189;SDS011;5651;50.926;4.718;2023-02-19T03:12:05;10.80;;;3.13;;
11189;SDS011;5651;50.926;4.718;2023-02-19T03:14:56;10.20;;;3.47;;
11189;SDS011;5651;50.926;4.718;2023-02-19T03:17:48;10.80;;;3.50;;
11189;SDS011;5651;50.926;4.718;2023-02-19T03:20:36;13.65;;;3.60;;
11189;SDS011;5651;50.926;4.718;2023-02-19T03:23:09;8.48;;;3.20;;
11189;SDS011;5651;50.926;4.718;2023-02-19T03:25:37;12.27;;;3.38;;
11189;SDS011;5651;50.926;4.718;2023-02-19T03:28:25;14.85;;;3.90;;
11189;SDS011;5651;50.926;4.718;2023-02-19T03:31:14;12.90;;;3.20;;
11189;SDS011;5651;50.926;4.718;2023-02-19T03:33:44;12.15;;;4.72;;
11189;SDS011;5651;50.926;4.718;2023-02-19T03:36:13;14.27;;;4.03;;
11189;SDS011;5651;50.926;4.718;2023-02-19T03:38:47;13.20;;;3.33;;
11189;SDS011;5651;50.926;4.718;2023-02-19T03:41:34;13.07;;;3.17;;
11189;SDS011;5651;50.926;4.718;2023-02-19T03:44:21;14.15;;;2.78;;
11189;SDS011;5651;50.926;4.718;2023-02-19T03:49:23;12.05;;;3.05;;
11189;SDS011;5651;50.926;4.718;2023-02-19T03:52:40;10.57;;;3.42;;
11189;SDS011;5651;50.926;4.718;2023-02-19T03:54:57;13.23;;;2.80;;
11189;SDS011;5651;50.926;4.718;2023-02-19T04:00:05;10.18;;;3.00;;
11189;SDS011;5651;50.926;4.718;2023-02-19T04:05:36;15.68;;;2.90;;
11189;SDS011;5651;50.926;4.718;2023-02-19T04:08:09;8.30;;;2.30;;
11189;SDS011;5651;50.926;4.718;2023-02-19T04:10:39;13.98;;;3.17;;
11189;SDS011;5651;50.926;4.718;2023-02-19T04:13:07;15.20;;;3.35;;
11189;SDS011;5651;50.926;4.718;2023-02-19T04:15:39;12.93;;;2.60;;
11189;SDS011;5651;50.926;4.718;2023-02-19T04:18:08;11.38;;;2.92;;
11189;SDS011;5651;50.926;4.718;2023-02-19T04:20:40;13.18;;;3.90;;
11189;SDS011;5651;50.926;4.718;2023-02-19T04:23:08;12.70;;;3.53;;
11189;SDS011;5651;50.926;4.718;2023-02-19T04:25:34;19.02;;;3.17;;
11189;SDS011;5651;50.926;4.718;2023-02-19T04:28:03;12.57;;;4.03;;
11189;SDS011;5651;50.926;4.718;2023-02-19T04:30:30;9.85;;;2.58;;
11189;SDS011;5651;50.926;4.718;2023-02-19T04:32:55;16.08;;;3.50;;
11189;SDS011;5651;50.926;4.718;2023-02-19T04:35:21;13.18;;;3.83;;
11189;SDS011;5651;50.926;4.718;2023-02-19T04:37:47;13.27;;;3.25;;
11189;SDS011;5651;50.926;4.718;2023-02-19T04:40:12;19.85;;;3.70;;
11189;SDS011;5651;50.926;4.718;2023-02-19T04:42:38;16.35;;;3.35;;
11189;SDS011;5651;50.926;4.718;2023-02-19T04:45:04;16.40;;;3.83;;
11189;SDS011;5651;50.926;4.718;2023-02-19T04:47:33;10.52;;;3.45;;
11189;SDS011;5651;50.926;4.718;2023-02-19T04:49:58;12.57;;;2.55;;
11189;SDS011;5651;50.926;4.718;2023-02-19T04:52:24;12.90;;;3.60;;
11189;SDS011;5651;50.926;4.718;2023-02-19T04:54:50;14.07;;;2.90;;
11189;SDS011;5651;50.926;4.718;2023-02-19T04:57:15;16.35;;;2.85;;
11189;SDS011;5651;50.926;4.718;2023-02-19T04:59:41;15.27;;;2.75;;
11189;SDS011;5651;50.926;4.718;2023-02-19T05:02:07;7.65;;;2.53;;
11189;SDS011;5651;50.926;4.718;2023-02-19T05:04:32;11.60;;;2.72;;
11189;SDS011;5651;50.926;4.718;2023-02-19T05:06:58;13.75;;;3.65;;
11189;SDS011;5651;50.926;4.718;2023-02-19T05:09:24;12.23;;;3.20;;
11189;SDS011;5651;50.926;4.718;2023-02-19T05:11:50;13.73;;;2.78;;
11189;SDS011;5651;50.926;4.718;2023-02-19T05:14:15;13.80;;;3.80;;
11189;SDS011;5651;50.926;4.718;2023-02-19T05:16:41;11.60;;;3.08;;
11189;SDS011;5651;50.926;4.718;2023-02-19T05:19:09;17.55;;;3.22;;
11189;SDS011;5651;50.926;4.718;2023-02-19T05:21:35;19.02;;;3.13;;
11189;SDS011;5651;50.926;4.718;2023-02-19T05:24:01;19.42;;;4.22;;
11189;SDS011;5651;50.926;4.718;2023-02-19T05:26:27;12.70;;;3.67;;
11189;SDS011;5651;50.926;4.718;2023-02-19T05:28:55;12.77;;;3.22;;
11189;SDS011;5651;50.926;4.718;2023-02-19T05:31:21;11.18;;;3.28;;
11189;SDS011;5651;50.926;4.718;2023-02-19T05:33:47;13.00;;;2.92;;
11189;SDS011;5651;50.926;4.718;2023-02-19T05:36:15;18.02;;;3.63;;
11189;SDS011;5651;50.926;4.718;2023-02-19T05:38:42;15.30;;;3.15;;
11189;SDS011;5651;50.926;4.718;2023-02-19T05:43:41;13.00;;;3.42;;
11189;SDS011;5651;50.926;4.718;2023-02-19T05:46:08;16.13;;;3.40;;
11189;SDS011;5651;50.926;4.718;2023-02-19T05:48:35;12.65;;;3.00;;
11189;SDS011;5651;50.926;4.718;2023-02-19T05:51:05;15.35;;;4.25;;
11189;SDS011;5651;50.926;4.718;2023-02-19T05:53:33;12.85;;;2.95;;
11189;SDS011;5651;50.926;4.718;2023-02-19T05:55:59;13.73;;;3.20;;
11189;SDS011;5651;50.926;4.718;2023-02-19T05:58:25;12.50;;;3.00;;
11189;SDS011;5651;50.926;4.718;2023-02-19T06:00:52;18.23;;;4.18;;
11189;SDS011;5651;50.926;4.718;2023-02-19T06:03:18;26.92;;;4.78;;
11189;SDS011;5651;50.926;4.718;2023-02-19T06:05:44;17.85;;;3.00;;
11189;SDS011;5651;50.926;4.718;2023-02-19T06:08:13;17.63;;;4.57;;
11189;SDS011;5651;50.926;4.718;2023-02-19T06:10:40;13.52;;;4.05;;
11189;SDS011;5651;50.926;4.718;2023-02-19T06:13:07;18.83;;;3.05;;
11189;SDS011;5651;50.926;4.718;2023-02-19T06:15:34;15.32;;;2.88;;
11189;SDS011;5651;50.926;4.718;2023-02-19T06:18:00;15.93;;;3.30;;
11189;SDS011;5651;50.926;4.718;2023-02-19T06:20:27;18.52;;;3.58;;
11189;SDS011;5651;50.926;4.718;2023-02-19T06:22:53;16.73;;;3.50;;
11189;SDS011;5651;50.926;4.718;2023-02-19T06:25:19;16.70;;;3.33;;
11189;SDS011;5651;50.926;4.718;2023-02-19T06:27:45;16.45;;;3.33;;
11189;SDS011;5651;50.926;4.718;2023-02-19T06:30:11;11.27;;;3.20;;
11189;SDS011;5651;50.926;4.718;2023-02-19T06:32:37;14.60;;;3.05;;
11189;SDS011;5651;50.926;4.718;2023-02-19T06:35:03;15.32;;;3.60;;
11189;SDS011;5651;50.926;4.718;2023-02-19T06:37:29;18.67;;;3.55;;
11189;SDS011;5651;50.926;4.718;2023-02-19T06:39:55;15.10;;;3.60;;
11189;SDS011;5651;50.926;4.718;2023-02-19T06:42:21;11.32;;;3.03;;
11189;SDS011;5651;50.926;4.718;2023-02-19T06:44:46;10.55;;;2.85;;
11189;SDS011;5651;50.926;4.718;2023-02-19T06:47:12;19.45;;;2.80;;
11189;SDS011;5651;50.926;4.718;2023-02-19T06:49:38;13.77;;;3.05;;
11189;SDS011;5651;50.926;4.718;2023-02-19T06:52:05;10.55;;;2.95;;
11189;SDS011;5651;50.926;4.718;2023-02-19T06:54:30;17.52;;;3.05;;
11189;SDS011;5651;50.926;4.718;2023-02-19T06:56:57;14.15;;;2.78;;
11189;SDS011;5651;50.926;4.718;2023-02-19T06:59:24;14.13;;;3.08;;
11189;SDS011;5651;50.926;4.718;2023-02-19T07:01:50;12.57;;;3.00;;
11189;SDS011;5651;50.926;4.718;2023-02-19T07:04:16;12.20;;;3.17;;
11189;SDS011;5651;50.926;4.718;2023-02-19T07:06:41;18.52;;;4.05;;
11189;SDS011;5651;50.926;4.718;2023-02-19T07:09:08;13.63;;;2.78;;
11189;SDS011;5651;50.926;4.718;2023-02-19T07:11:35;13.27;;;3.17;;
11189;SDS011;5651;50.926;4.718;2023-02-19T07:14:03;14.55;;;3.17;;
11189;SDS011;5651;50.926;4.718;2023-02-19T07:16:32;14.80;;;2.67;;
11189;SDS011;5651;50.926;4.718;2023-02-19T07:18:58;11.02;;;2.83;;
11189;SDS011;5651;50.926;4.718;2023-02-19T07:21:25;17.83;;;3.17;;
11189;SDS011;5651;50.926;4.718;2023-02-19T07:23:51;12.40;;;3.70;;
11189;SDS011;5651;50.926;4.718;2023-02-19T07:26:18;18.75;;;4.18;;
11189;SDS011;5651;50.926;4.718;2023-02-19T07:28:46;11.57;;;2.78;;
11189;SDS011;5651;50.926;4.718;2023-02-19T07:31:13;18.02;;;3.55;;
11189;SDS011;5651;50.926;4.718;2023-02-19T07:33:43;10.93;;;3.10;;
11189;SDS011;5651;50.926;4.718;2023-02-19T07:36:10;15.10;;;3.00;;
11189;SDS011;5651;50.926;4.718;2023-02-19T07:38:36;18.70;;;4.25;;
11189;SDS011;5651;50.926;4.718;2023-02-19T07:41:02;19.60;;;4.45;;
11189;SDS011;5651;50.926;4.718;2023-02-19T07:43:30;18.25;;;3.30;;
11189;SDS011;5651;50.926;4.718;2023-02-19T07:45:57;14.18;;;3.97;;
11189;SDS011;5651;50.926;4.718;2023-02-19T07:48:23;11.18;;;3.08;;
11189;SDS011;5651;50.926;4.718;2023-02-19T07:50:52;11.80;;;3.33;;
11189;SDS011;5651;50.926;4.718;2023-02-19T07:53:20;17.77;;;3.38;;
11189;SDS011;5651;50.926;4.718;2023-02-19T07:55:46;13.07;;;3.08;;
11189;SDS011;5651;50.926;4.718;2023-02-19T07:58:12;15.57;;;3.22;;
11189;SDS011;5651;50.926;4.718;2023-02-19T08:00:38;12.82;;;2.50;;
11189;SDS011;5651;50.926;4.718;2023-02-19T08:03:04;12.32;;;2.85;;
11189;SDS011;5651;50.926;4.718;2023-02-19T08:05:31;13.95;;;2.80;;
11189;SDS011;5651;50.926;4.718;2023-02-19T08:07:58;18.02;;;3.50;;
11189;SDS011;5651;50.926;4.718;2023-02-19T08:10:25;12.90;;;4.22;;
11189;SDS011;5651;50.926;4.718;2023-02-19T08:13:12;18.50;;;3.30;;
11189;SDS011;5651;50.926;4.718;2023-02-19T08:15:51;12.43;;;3.15;;
11189;SDS011;5651;50.926;4.718;2023-02-19T08:18:19;15.20;;;2.90;;
11189;SDS011;5651;50.926;4.718;2023-02-19T08:20:46;19.08;;;3.40;;
11189;SDS011;5651;50.926;4.718;2023-02-19T08:23:12;11.07;;;2.80;;
11189;SDS011;5651;50.926;4.718;2023-02-19T08:25:39;13.75;;;3.17;;
11189;SDS011;5651;50.926;4.718;2023-02-19T08:28:05;10.20;;;3.42;;
11189;SDS011;5651;50.926;4.718;2023-02-19T08:30:33;15.75;;;3.08;;
11189;SDS011;5651;50.926;4.718;2023-02-19T08:32:59;14.40;;;2.92;;
11189;SDS011;5651;50.926;4.718;2023-02-19T08:35:26;12.55;;;3.30;;
11189;SDS011;5651;50.926;4.718;2023-02-19T08:37:54;12.68;;;3.00;;
11189;SDS011;5651;50.926;4.718;2023-02-19T08:40:26;16.83;;;4.32;;
11189;SDS011;5651;50.926;4.718;2023-02-19T08:42:51;11.93;;;3.42;;
11189;SDS011;5651;50.926;4.718;2023-02-19T08:45:17;12.25;;;2.95;;
11189;SDS011;5651;50.926;4.718;2023-02-19T08:47:43;17.90;;;3.65;;
11189;SDS011;5651;50.926;4.718;2023-02-19T08:50:10;18.83;;;3.83;;
11189;SDS011;5651;50.926;4.718;2023-02-19T08:52:36;15.50;;;3.95;;
11189;SDS011;5651;50.926;4.718;2023-02-19T08:55:03;16.70;;;3.45;;
11189;SDS011;5651;50.926;4.718;2023-02-19T08:57:30;16.80;;;3.13;;
11189;SDS011;5651;50.926;4.718;2023-02-19T08:59:55;15.63;;;3.10;;
11189;SDS011;5651;50.926;4.718;2023-02-19T09:02:22;16.60;;;2.90;;
11189;SDS011;5651;50.926;4.718;2023-02-19T09:04:48;14.20;;;4.18;;
11189;SDS011;5651;50.926;4.718;2023-02-19T09:07:14;13.77;;;3.47;;
11189;SDS011;5651;50.926;4.718;2023-02-19T09:09:40;16.25;;;3.20;;
11189;SDS011;5651;50.926;4.718;2023-02-19T09:12:07;17.73;;;4.93;;
11189;SDS011;5651;50.926;4.718;2023-02-19T09:14:34;15.82;;;3.10;;
11189;SDS011;5651;50.926;4.718;2023-02-19T09:17:01;13.65;;;2.85;;
11189;SDS011;5651;50.926;4.718;2023-02-19T09:19:29;15.15;;;3.17;;
11189;SDS011;5651;50.926;4.718;2023-02-19T09:21:54;16.13;;;3.15;;
11189;SDS011;5651;50.926;4.718;2023-02-19T09:24:20;18.40;;;4.60;;
11189;SDS011;5651;50.926;4.718;2023-02-19T09:26:52;13.70;;;3.55;;
11189;SDS011;5651;50.926;4.718;2023-02-19T09:29:19;17.98;;;3.90;;
11189;SDS011;5651;50.926;4.718;2023-02-19T09:31:46;13.15;;;3.53;;
11189;SDS011;5651;50.926;4.718;2023-02-19T09:34:12;14.65;;;3.53;;
11189;SDS011;5651;50.926;4.718;2023-02-19T09:36:38;10.98;;;3.95;;
11189;SDS011;5651;50.926;4.718;2023-02-19T09:39:05;14.32;;;4.22;;
11189;SDS011;5651;50.926;4.718;2023-02-19T09:44:03;10.13;;;3.30;;
11189;SDS011;5651;50.926;4.718;2023-02-19T09:46:35;13.07;;;3.30;;
11189;SDS011;5651;50.926;4.718;2023-02-19T09:49:13;11.90;;;3.55;;
11189;SDS011;5651;50.926;4.718;2023-02-19T09:57:14;13.10;;;4.10;;
11189;SDS011;5651;50.926;4.718;2023-02-19T09:59:51;12.02;;;3.60;;
11189;SDS011;5651;50.926;4.718;2023-02-19T10:02:29;11.93;;;4.00;;
11189;SDS011;5651;50.926;4.718;2023-02-19T10:04:55;11.05;;;3.40;;
11189;SDS011;5651;50.926;4.718;2023-02-19T10:07:24;21.60;;;3.85;;
11189;SDS011;5651;50.926;4.718;2023-02-19T10:09:58;18.35;;;4.47;;
11189;SDS011;5651;50.926;4.718;2023-02-19T10:12:30;17.30;;;5.35;;
11189;SDS011;5651;50.926;4.718;2023-02-19T10:17:52;11.85;;;3.85;;
11189;SDS011;5651;50.926;4.718;2023-02-19T10:20:19;15.60;;;4.00;;
11189;SDS011;5651;50.926;4.718;2023-02-19T10:22:51;12.48;;;3.83;;
11189;SDS011;5651;50.926;4.718;2023-02-19T10:25:24;17.15;;;4.07;;
11189;SDS011;5651;50.926;4.718;2023-02-19T10:27:50;15.20;;;4.13;;
11189;SDS011;5651;50.926;4.718;2023-02-19T10:30:17;18.20;;;3.85;;
11189;SDS011;5651;50.926;4.718;2023-02-19T10:32:59;20.73;;;3.97;;
11189;SDS011;5651;50.926;4.718;2023-02-19T10:35:28;11.43;;;3.85;;
11189;SDS011;5651;50.926;4.718;2023-02-19T10:37:59;12.32;;;3.70;;
11189;SDS011;5651;50.926;4.718;2023-02-19T10:40:27;13.65;;;3.88;;
11189;SDS011;5651;50.926;4.718;2023-02-19T10:43:03;12.40;;;3.72;;
11189;SDS011;5651;50.926;4.718;2023-02-19T10:45:39;15.38;;;4.80;;
11189;SDS011;5651;50.926;4.718;2023-02-19T10:48:22;12.20;;;3.70;;
11189;SDS011;5651;50.926;4.718;2023-02-19T10:50:51;16.77;;;5.30;;
11189;SDS011;5651;50.926;4.718;2023-02-19T10:53:38;16.85;;;5.65;;
11189;SDS011;5651;50.926;4.718;2023-02-19T10:58:46;8.88;;;4.20;;
11189;SDS011;5651;50.926;4.718;2023-02-19T11:01:13;14.65;;;4.85;;
11189;SDS011;5651;50.926;4.718;2023-02-19T11:03:41;15.85;;;6.20;;
11189;SDS011;5651;50.926;4.718;2023-02-19T11:06:08;11.57;;;4.93;;
11189;SDS011;5651;50.926;4.718;2023-02-19T11:11:23;13.25;;;5.20;;
11189;SDS011;5651;50.926;4.718;2023-02-19T11:13:51;14.73;;;5.18;;
11189;SDS011;5651;50.926;4.718;2023-02-19T11:16:19;11.65;;;5.00;;
11189;SDS011;5651;50.926;4.718;2023-02-19T11:18:44;13.98;;;5.57;;
11189;SDS011;5651;50.926;4.718;2023-02-19T11:21:23;13.25;;;5.43;;
11189;SDS011;5651;50.926;4.718;2023-02-19T11:23:52;15.40;;;7.07;;
11189;SDS011;5651;50.926;4.718;2023-02-19T11:26:21;16.95;;;6.50;;
11189;SDS011;5651;50.926;4.718;2023-02-19T11:29:01;13.07;;;5.50;;
11189;SDS011;5651;50.926;4.718;2023-02-19T11:31:40;12.45;;;5.43;;
11189;SDS011;5651;50.926;4.718;2023-02-19T11:36:38;13.45;;;6.80;;
11189;SDS011;5651;50.926;4.718;2023-02-19T11:53:19;19.55;;;7.82;;
11189;SDS011;5651;50.926;4.718;2023-02-19T11:55:56;11.70;;;6.03;;
11189;SDS011;5651;50.926;4.718;2023-02-19T11:59:00;14.85;;;6.05;;
11189;SDS011;5651;50.926;4.718;2023-02-19T12:10:12;13.02;;;6.05;;
11189;SDS011;5651;50.926;4.718;2023-02-19T12:15:34;16.63;;;7.18;;
11189;SDS011;5651;50.926;4.718;2023-02-19T12:18:07;15.88;;;6.93;;
11189;SDS011;5651;50.926;4.718;2023-02-19T12:26:42;17.58;;;8.32;;
11189;SDS011;5651;50.926;4.718;2023-02-19T12:43:22;15.68;;;6.70;;
11189;SDS011;5651;50.926;4.718;2023-02-19T12:48:19;19.90;;;7.00;;
11189;SDS011;5651;50.926;4.718;2023-02-19T12:51:18;13.02;;;6.63;;
11189;SDS011;5651;50.926;4.718;2023-02-19T12:54:31;14.40;;;6.00;;
11189;SDS011;5651;50.926;4.718;2023-02-19T12:56:49;10.13;;;5.50;;
11189;SDS011;5651;50.926;4.718;2023-02-19T12:59:30;13.75;;;5.38;;
11189;SDS011;5651;50.926;4.718;2023-02-19T13:02:19;17.20;;;5.82;;
11189;SDS011;5651;50.926;4.718;2023-02-19T13:07:24;13.25;;;5.20;;
11189;SDS011;5651;50.926;4.718;2023-02-19T13:09:57;14.40;;;6.93;;
11189;SDS011;5651;50.926;4.718;2023-02-19T13:12:33;15.55;;;9.07;;
11189;SDS011;5651;50.926;4.718;2023-02-19T13:15:04;12.68;;;8.27;;
11189;SDS011;5651;50.926;4.718;2023-02-19T13:20:00;20.80;;;8.52;;
11189;SDS011;5651;50.926;4.718;2023-02-19T13:22:37;11.50;;;7.88;;
11189;SDS011;5651;50.926;4.718;2023-02-19T13:28:56;16.48;;;8.15;;
11189;SDS011;5651;50.926;4.718;2023-02-19T13:31:53;15.73;;;8.00;;
11189;SDS011;5651;50.926;4.718;2023-02-19T13:37:15;18.85;;;8.07;;
11189;SDS011;5651;50.926;4.718;2023-02-19T13:39:49;13.77;;;6.50;;
11189;SDS011;5651;50.926;4.718;2023-02-19T13:42:26;14.40;;;6.22;;
11189;SDS011;5651;50.926;4.718;2023-02-19T13:44:57;13.15;;;5.82;;
11189;SDS011;5651;50.926;4.718;2023-02-19T13:52:54;17.08;;;7.85;;
11189;SDS011;5651;50.926;4.718;2023-02-19T14:01:02;13.93;;;5.80;;
11189;SDS011;5651;50.926;4.718;2023-02-19T14:06:07;10.75;;;5.07;;
11189;SDS011;5651;50.926;4.718;2023-02-19T14:20:02;9.32;;;4.45;;
11189;SDS011;5651;50.926;4.718;2023-02-19T14:30:31;8.20;;;3.92;;
11189;SDS011;5651;50.926;4.718;2023-02-19T14:32:59;8.20;;;4.53;;
11189;SDS011;5651;50.926;4.718;2023-02-19T14:35:29;12.18;;;4.60;;
11189;SDS011;5651;50.926;4.718;2023-02-19T14:38:00;8.93;;;4.60;;
11189;SDS011;5651;50.926;4.718;2023-02-19T14:40:37;8.00;;;4.63;;
11189;SDS011;5651;50.926;4.718;2023-02-19T14:43:10;9.90;;;4.60;;
11189;SDS011;5651;50.926;4.718;2023-02-19T14:45:43;10.55;;;4.90;;
11189;SDS011;5651;50.926;4.718;2023-02-19T14:48:17;9.98;;;4.88;;
11189;SDS011;5651;50.926;4.718;2023-02-19T14:50:48;10.07;;;5.00;;
11189;SDS011;5651;50.926;4.718;2023-02-19T14:53:18;11.68;;;5.03;;
11189;SDS011;5651;50.926;4.718;2023-02-19T14:55:46;10.18;;;4.43;;
11189;SDS011;5651;50.926;4.718;2023-02-19T14:58:22;8.95;;;5.47;;
11189;SDS011;5651;50.926;4.718;2023-02-19T15:00:52;11.52;;;5.32;;
11189;SDS011;5651;50.926;4.718;2023-02-19T15:03:25;7.43;;;4.18;;
11189;SDS011;5651;50.926;4.718;2023-02-19T15:06:00;12.65;;;4.82;;
11189;SDS011;5651;50.926;4.718;2023-02-19T15:08:31;9.43;;;4.70;;
11189;SDS011;5651;50.926;4.718;2023-02-19T15:11:01;13.80;;;4.50;;
11189;SDS011;5651;50.926;4.718;2023-02-19T15:13:28;9.13;;;4.80;;
11189;SDS011;5651;50.926;4.718;2023-02-19T15:15:55;9.43;;;4.10;;
11189;SDS011;5651;50.926;4.718;2023-02-19T15:18:22;8.57;;;4.10;;
11189;SDS011;5651;50.926;4.718;2023-02-19T15:20:50;9.10;;;4.72;;
11189;SDS011;5651;50.926;4.718;2023-02-19T15:23:22;6.90;;;4.20;;
11189;SDS011;5651;50.926;4.718;2023-02-19T15:25:50;14.50;;;4.90;;
11189;SDS011;5651;50.926;4.718;2023-02-19T15:30:45;9.52;;;4.60;;
11189;SDS011;5651;50.926;4.718;2023-02-19T15:33:18;7.70;;;4.65;;
11189;SDS011;5651;50.926;4.718;2023-02-19T15:35:48;8.45;;;4.55;;
11189;SDS011;5651;50.926;4.718;2023-02-19T15:38:15;7.63;;;4.70;;
11189;SDS011;5651;50.926;4.718;2023-02-19T15:40:45;9.95;;;4.97;;
11189;SDS011;5651;50.926;4.718;2023-02-19T15:43:33;9.93;;;4.80;;
11189;SDS011;5651;50.926;4.718;2023-02-19T15:46:25;9.02;;;5.30;;
11189;SDS011;5651;50.926;4.718;2023-02-19T15:51:28;7.20;;;4.15;;
11189;SDS011;5651;50.926;4.718;2023-02-19T15:54:02;6.00;;;3.72;;
11189;SDS011;5651;50.926;4.718;2023-02-19T15:56:39;9.05;;;3.00;;
11189;SDS011;5651;50.926;4.718;2023-02-19T15:59:14;5.03;;;2.42;;
11189;SDS011;5651;50.926;4.718;2023-02-19T16:01:41;3.65;;;2.47;;
11189;SDS011;5651;50.926;4.718;2023-02-19T16:04:12;7.13;;;2.90;;
11189;SDS011;5651;50.926;4.718;2023-02-19T16:06:59;5.78;;;3.28;;
11189;SDS011;5651;50.926;4.718;2023-02-19T16:09:30;4.78;;;3.10;;
11189;SDS011;5651;50.926;4.718;2023-02-19T16:11:59;4.38;;;2.65;;
11189;SDS011;5651;50.926;4.718;2023-02-19T16:14:33;6.18;;;3.15;;
11189;SDS011;5651;50.926;4.718;2023-02-19T16:22:08;4.65;;;2.70;;
11189;SDS011;5651;50.926;4.718;2023-02-19T16:24:36;5.45;;;3.08;;
11189;SDS011;5651;50.926;4.718;2023-02-19T16:27:10;9.65;;;4.05;;
11189;SDS011;5651;50.926;4.718;2023-02-19T16:29:51;6.75;;;3.42;;
11189;SDS011;5651;50.926;4.718;2023-02-19T16:32:17;6.60;;;3.53;;
11189;SDS011;5651;50.926;4.718;2023-02-19T16:42:35;5.30;;;3.10;;
11189;SDS011;5651;50.926;4.718;2023-02-19T16:45:22;6.78;;;3.33;;
11189;SDS011;5651;50.926;4.718;2023-02-19T16:47:48;6.60;;;3.22;;
11189;SDS011;5651;50.926;4.718;2023-02-19T16:50:24;5.47;;;3.00;;
11189;SDS011;5651;50.926;4.718;2023-02-19T16:52:54;6.95;;;2.88;;
11189;SDS011;5651;50.926;4.718;2023-02-19T16:55:25;4.18;;;2.70;;
11189;SDS011;5651;50.926;4.718;2023-02-19T16:57:52;7.07;;;3.00;;
11189;SDS011;5651;50.926;4.718;2023-02-19T17:00:22;7.13;;;3.00;;
11189;SDS011;5651;50.926;4.718;2023-02-19T17:02:50;6.22;;;2.90;;
11189;SDS011;5651;50.926;4.718;2023-02-19T17:05:19;5.40;;;2.80;;
11189;SDS011;5651;50.926;4.718;2023-02-19T17:07:47;8.77;;;2.80;;
11189;SDS011;5651;50.926;4.718;2023-02-19T17:10:17;4.88;;;2.70;;
11189;SDS011;5651;50.926;4.718;2023-02-19T17:12:44;4.30;;;2.50;;
11189;SDS011;5651;50.926;4.718;2023-02-19T17:15:10;5.18;;;3.03;;
11189;SDS011;5651;50.926;4.718;2023-02-19T17:17:37;6.45;;;2.90;;
11189;SDS011;5651;50.926;4.718;2023-02-19T17:20:25;6.35;;;3.28;;
11189;SDS011;5651;50.926;4.718;2023-02-19T17:22:54;6.97;;;3.38;;
11189;SDS011;5651;50.926;4.718;2023-02-19T17:25:20;6.03;;;3.05;;
11189;SDS011;5651;50.926;4.718;2023-02-19T17:27:46;5.35;;;3.28;;
11189;SDS011;5651;50.926;4.718;2023-02-19T17:30:14;9.18;;;3.47;;
11189;SDS011;5651;50.926;4.718;2023-02-19T17:32:44;8.95;;;3.90;;
11189;SDS011;5651;50.926;4.718;2023-02-19T17:35:11;8.77;;;3.60;;
11189;SDS011;5651;50.926;4.718;2023-02-19T17:37:37;9.75;;;4.47;;
11189;SDS011;5651;50.926;4.718;2023-02-19T17:40:03;7.30;;;3.83;;
11189;SDS011;5651;50.926;4.718;2023-02-19T17:42:29;6.32;;;3.55;;
11189;SDS011;5651;50.926;4.718;2023-02-19T17:44:54;8.27;;;3.58;;
11189;SDS011;5651;50.926;4.718;2023-02-19T17:47:20;7.18;;;3.83;;